createdAt,value
2016-11-14T00:00:33.353Z,56.59
2016-11-14T00:01:14.117Z,56.68
2016-11-14T00:01:54.906Z,56.49
2016-11-14T00:02:35.575Z,56.49
2016-11-14T00:03:16.298Z,56.3
2016-11-14T00:03:57.041Z,56.21
2016-11-14T00:04:37.659Z,56.4
2016-11-14T00:05:18.295Z,56.3
2016-11-14T00:05:59.034Z,56.3
2016-11-14T00:06:39.786Z,56.3
2016-11-14T00:07:20.529Z,56.21
2016-11-14T00:08:01.251Z,56.49
2016-11-14T00:08:41.981Z,56.21
2016-11-14T00:09:22.588Z,56.3
2016-11-14T00:10:03.284Z,56.21
2016-11-14T00:10:43.988Z,56.49
2016-11-14T00:11:24.577Z,56.21
2016-11-14T00:12:05.184Z,56.3
2016-11-14T00:12:45.812Z,56.21
2016-11-14T00:13:26.470Z,56.4
2016-11-14T00:14:07.124Z,56.4
2016-11-14T00:14:47.843Z,56.4
2016-11-14T00:15:28.496Z,56.4
2016-11-14T00:16:09.081Z,56.3
2016-11-14T00:16:49.678Z,56.3
2016-11-14T00:17:30.324Z,56.4
2016-11-14T00:18:10.912Z,56.3
2016-11-14T00:18:51.597Z,56.21
2016-11-14T00:19:32.213Z,56.21
2016-11-14T00:20:12.903Z,56.4
2016-11-14T00:20:53.527Z,56.4
2016-11-14T00:21:34.232Z,56.21
2016-11-14T00:22:14.838Z,56.01
2016-11-14T00:22:55.611Z,56.56
2016-11-14T00:23:36.270Z,56.49
2016-11-14T00:24:16.956Z,56.21
2016-11-14T00:24:58.305Z,56.49
2016-11-14T00:25:38.982Z,56.21
2016-11-14T00:26:19.558Z,56.3
2016-11-14T00:27:00.256Z,56.59
2016-11-14T00:27:40.890Z,56.4
2016-11-14T00:28:21.562Z,56.4
2016-11-14T00:29:02.237Z,56.59
2016-11-14T00:29:42.926Z,56.59
2016-11-14T00:30:23.618Z,56.4
2016-11-14T00:31:04.357Z,56.4
2016-11-14T00:31:45.062Z,56.68
2016-11-14T00:32:25.797Z,56.37
2016-11-14T00:33:06.447Z,56.37
2016-11-14T00:33:47.214Z,56.78
2016-11-14T00:34:27.850Z,57.07
2016-11-14T00:35:08.544Z,56.85
2016-11-14T00:35:49.320Z,56.85
2016-11-14T00:36:30.030Z,57.04
2016-11-14T00:37:10.628Z,57.04
2016-11-14T00:37:51.308Z,57.04
2016-11-14T00:38:31.986Z,56.85
2016-11-14T00:39:12.628Z,56.95
2016-11-14T00:39:53.318Z,56.95
2016-11-14T00:40:34.017Z,56.88
2016-11-14T00:41:14.604Z,56.56
2016-11-14T00:41:55.255Z,56.66
2016-11-14T00:42:35.966Z,56.85
2016-11-14T00:43:16.689Z,56.95
2016-11-14T00:43:57.377Z,56.66
2016-11-14T00:44:38.060Z,56.88
2016-11-14T00:45:18.902Z,56.66
2016-11-14T00:45:59.490Z,56.76
2016-11-14T00:46:40.157Z,56.95
2016-11-14T00:47:20.839Z,56.56
2016-11-14T00:48:01.519Z,56.66
2016-11-14T00:48:42.156Z,56.66
2016-11-14T00:49:22.748Z,56.66
2016-11-14T00:50:03.455Z,56.85
2016-11-14T00:50:44.105Z,56.85
2016-11-14T00:51:24.675Z,56.56
2016-11-14T00:52:05.309Z,56.56
2016-11-14T00:52:45.987Z,56.85
2016-11-14T00:53:26.573Z,56.85
2016-11-14T00:54:07.217Z,56.76
2016-11-14T00:54:47.903Z,56.85
2016-11-14T00:55:28.599Z,56.85
2016-11-14T00:56:09.249Z,56.76
2016-11-14T00:56:49.927Z,56.56
2016-11-14T00:57:31.537Z,56.76
2016-11-14T00:58:11.248Z,56.66
2016-11-14T00:58:51.909Z,56.76
2016-11-14T00:59:32.567Z,56.76
2016-11-14T01:00:13.239Z,56.85
2016-11-14T01:00:53.925Z,56.66
2016-11-14T01:01:34.713Z,56.66
2016-11-14T01:02:15.481Z,56.66
2016-11-14T01:02:56.195Z,56.66
2016-11-14T01:03:36.882Z,56.66
2016-11-14T01:04:17.529Z,57.14
2016-11-14T01:04:58.185Z,56.76
2016-11-14T01:05:38.861Z,56.85
2016-11-14T01:06:19.445Z,56.76
2016-11-14T01:07:00.115Z,56.66
2016-11-14T01:07:40.885Z,56.85
2016-11-14T01:08:21.576Z,56.76
2016-11-14T01:09:02.293Z,57.14
2016-11-14T01:09:42.899Z,56.85
2016-11-14T01:10:23.522Z,56.66
2016-11-14T01:11:04.228Z,56.76
2016-11-14T01:11:44.942Z,56.76
2016-11-14T01:12:25.652Z,56.85
2016-11-14T01:13:06.280Z,56.85
2016-11-14T01:13:46.888Z,57.33
2016-11-14T01:14:27.537Z,56.76
2016-11-14T01:15:08.289Z,56.76
2016-11-14T01:15:48.940Z,56.85
2016-11-14T01:16:29.590Z,56.76
2016-11-14T01:17:10.377Z,56.85
2016-11-14T01:17:51.030Z,57.14
2016-11-14T01:18:31.814Z,57.23
2016-11-14T01:19:12.510Z,57.04
2016-11-14T01:19:53.219Z,57.14
2016-11-14T01:20:33.938Z,57.04
2016-11-14T01:21:14.605Z,56.85
2016-11-14T01:21:55.268Z,56.95
2016-11-14T01:22:35.922Z,56.95
2016-11-14T01:23:16.610Z,56.95
2016-11-14T01:23:57.220Z,57.33
2016-11-14T01:24:37.857Z,56.85
2016-11-14T01:25:18.643Z,57.23
2016-11-14T01:25:59.273Z,56.95
2016-11-14T01:26:40.044Z,56.95
2016-11-14T01:27:20.692Z,56.85
2016-11-14T01:28:01.353Z,56.76
2016-11-14T01:28:42.020Z,57.04
2016-11-14T01:29:22.719Z,56.95
2016-11-14T01:30:03.320Z,57.33
2016-11-14T01:30:43.984Z,57.23
2016-11-14T01:31:24.577Z,56.85
2016-11-14T01:32:05.235Z,57.04
2016-11-14T01:32:45.917Z,56.95
2016-11-14T01:33:26.511Z,57.04
2016-11-14T01:34:07.151Z,56.95
2016-11-14T01:34:47.878Z,56.95
2016-11-14T01:35:28.549Z,57.23
2016-11-14T01:36:09.249Z,57.04
2016-11-14T01:36:49.844Z,56.95
2016-11-14T01:37:30.527Z,57.04
2016-11-14T01:38:11.239Z,57.04
2016-11-14T01:38:51.935Z,57.23
2016-11-14T01:39:32.702Z,57.23
2016-11-14T01:40:13.528Z,57.14
2016-11-14T01:40:54.085Z,57.23
2016-11-14T01:41:34.837Z,57.14
2016-11-14T01:42:15.499Z,57.04
2016-11-14T01:42:56.176Z,57.04
2016-11-14T01:43:36.888Z,57.04
2016-11-14T01:44:17.599Z,57.04
2016-11-14T01:44:58.308Z,57.23
2016-11-14T01:45:38.962Z,57.04
2016-11-14T01:46:19.707Z,57.04
2016-11-14T01:47:00.332Z,57.14
2016-11-14T01:47:41.063Z,57.04
2016-11-14T01:48:21.767Z,57.14
2016-11-14T01:49:02.494Z,57.04
2016-11-14T01:49:43.106Z,56.95
2016-11-14T01:50:23.747Z,57.01
2016-11-14T01:51:04.468Z,56.82
2016-11-14T01:51:45.198Z,57.23
2016-11-14T01:52:25.952Z,57.01
2016-11-14T01:53:06.613Z,56.95
2016-11-14T01:53:47.398Z,57.11
2016-11-14T01:54:28.141Z,56.95
2016-11-14T01:55:08.824Z,57.21
2016-11-14T01:55:49.430Z,57.01
2016-11-14T01:56:30.157Z,56.95
2016-11-14T01:57:10.886Z,56.76
2016-11-14T01:57:51.631Z,56.92
2016-11-14T01:58:32.262Z,56.95
2016-11-14T01:59:12.951Z,57.04
2016-11-14T01:59:53.543Z,57.04
2016-11-14T02:00:34.298Z,57.04
2016-11-14T02:01:14.991Z,57.11
2016-11-14T02:01:55.599Z,56.85
2016-11-14T02:02:36.295Z,57.01
2016-11-14T02:03:16.919Z,57.01
2016-11-14T02:03:57.571Z,57.04
2016-11-14T02:04:38.225Z,57.14
2016-11-14T02:05:18.935Z,57.04
2016-11-14T02:05:59.563Z,57.01
2016-11-14T02:06:40.153Z,57.01
2016-11-14T02:07:20.848Z,56.92
2016-11-14T02:08:01.459Z,57.04
2016-11-14T02:08:42.075Z,57.21
2016-11-14T02:09:22.669Z,57.04
2016-11-14T02:10:03.238Z,57.01
2016-11-14T02:10:43.981Z,57.01
2016-11-14T02:11:24.624Z,56.95
2016-11-14T02:12:05.241Z,57.04
2016-11-14T02:12:45.885Z,57.01
2016-11-14T02:13:26.553Z,57.04
2016-11-14T02:14:07.149Z,56.82
2016-11-14T02:14:47.769Z,56.76
2016-11-14T02:15:28.395Z,56.92
2016-11-14T02:16:09.096Z,56.92
2016-11-14T02:16:49.719Z,56.85
2016-11-14T02:17:30.313Z,57.01
2016-11-14T02:18:10.914Z,56.73
2016-11-14T02:18:51.612Z,56.82
2016-11-14T02:19:32.328Z,56.82
2016-11-14T02:20:13.005Z,57.14
2016-11-14T02:20:53.668Z,57.01
2016-11-14T02:21:34.398Z,56.76
2016-11-14T02:22:15.075Z,56.95
2016-11-14T02:22:55.776Z,57.01
2016-11-14T02:23:36.438Z,56.92
2016-11-14T02:24:17.066Z,56.82
2016-11-14T02:24:57.782Z,56.63
2016-11-14T02:25:38.432Z,56.85
2016-11-14T02:26:19.028Z,57.11
2016-11-14T02:26:59.670Z,57.11
2016-11-14T02:27:40.390Z,56.92
2016-11-14T02:28:21.083Z,56.76
2016-11-14T02:29:01.664Z,56.95
2016-11-14T02:29:42.256Z,57.14
2016-11-14T02:30:22.990Z,56.92
2016-11-14T02:31:03.544Z,57.01
2016-11-14T02:31:44.261Z,57.01
2016-11-14T02:32:24.941Z,56.82
2016-11-14T02:33:05.569Z,56.82
2016-11-14T02:33:46.217Z,56.92
2016-11-14T02:34:26.896Z,56.73
2016-11-14T02:35:07.593Z,57.01
2016-11-14T02:35:48.334Z,56.82
2016-11-14T02:36:28.972Z,56.82
2016-11-14T02:37:09.640Z,56.92
2016-11-14T02:37:50.336Z,56.73
2016-11-14T02:38:31.182Z,57.01
2016-11-14T02:39:11.864Z,56.85
2016-11-14T02:39:52.582Z,56.82
2016-11-14T02:40:33.304Z,56.82
2016-11-14T02:41:13.946Z,57.01
2016-11-14T02:41:54.564Z,56.82
2016-11-14T02:42:35.349Z,57.01
2016-11-14T02:43:15.971Z,56.82
2016-11-14T02:43:56.636Z,56.73
2016-11-14T02:44:37.291Z,57.01
2016-11-14T02:45:17.995Z,56.82
2016-11-14T02:45:58.658Z,56.73
2016-11-14T02:46:39.387Z,56.82
2016-11-14T02:47:20.025Z,56.82
2016-11-14T02:48:00.704Z,56.73
2016-11-14T02:48:41.447Z,56.73
2016-11-14T02:49:22.076Z,57.11
2016-11-14T02:50:02.778Z,56.92
2016-11-14T02:50:43.402Z,57.01
2016-11-14T02:51:24.050Z,57.01
2016-11-14T02:52:04.732Z,56.92
2016-11-14T02:52:45.330Z,56.82
2016-11-14T02:53:25.978Z,56.82
2016-11-14T02:54:06.638Z,57.01
2016-11-14T02:54:47.238Z,57.21
2016-11-14T02:55:27.844Z,57.01
2016-11-14T02:56:08.510Z,56.92
2016-11-14T02:56:49.252Z,57.21
2016-11-14T02:57:29.885Z,57.01
2016-11-14T02:58:10.597Z,57.21
2016-11-14T02:58:51.225Z,57.11
2016-11-14T02:59:31.805Z,56.92
2016-11-14T03:00:12.489Z,57.01
2016-11-14T03:00:53.095Z,57.01
2016-11-14T03:01:33.787Z,57.21
2016-11-14T03:02:14.415Z,57.21
2016-11-14T03:02:55.152Z,57.01
2016-11-14T03:03:35.854Z,57.01
2016-11-14T03:04:16.670Z,57.01
2016-11-14T03:04:57.407Z,57.01
2016-11-14T03:05:38.121Z,56.92
2016-11-14T03:06:18.790Z,57.01
2016-11-14T03:06:59.520Z,57.01
2016-11-14T03:07:40.143Z,57.11
2016-11-14T03:08:20.802Z,57.01
2016-11-14T03:09:01.544Z,57.01
2016-11-14T03:09:42.242Z,57.01
2016-11-14T03:10:22.922Z,57.01
2016-11-14T03:11:03.540Z,56.82
2016-11-14T03:11:44.297Z,57.01
2016-11-14T03:12:24.963Z,57.01
2016-11-14T03:13:05.579Z,57.21
2016-11-14T03:13:46.258Z,56.92
2016-11-14T03:14:26.920Z,57.01
2016-11-14T03:15:07.597Z,57.01
2016-11-14T03:15:48.177Z,57.01
2016-11-14T03:16:28.807Z,56.82
2016-11-14T03:17:09.479Z,57.21
2016-11-14T03:17:50.183Z,57.01
2016-11-14T03:18:30.891Z,56.82
2016-11-14T03:19:11.654Z,57.21
2016-11-14T03:19:52.371Z,56.92
2016-11-14T03:20:33.030Z,56.73
2016-11-14T03:21:14.365Z,56.73
2016-11-14T03:21:55.038Z,57.21
2016-11-14T03:22:35.729Z,56.82
2016-11-14T03:23:16.447Z,57.21
2016-11-14T03:23:57.137Z,57.01
2016-11-14T03:24:37.753Z,56.82
2016-11-14T03:25:18.401Z,57.21
2016-11-14T03:25:59.079Z,56.92
2016-11-14T03:26:39.802Z,56.92
2016-11-14T03:27:20.528Z,56.92
2016-11-14T03:28:01.195Z,57.01
2016-11-14T03:28:41.913Z,56.73
2016-11-14T03:29:22.655Z,56.82
2016-11-14T03:30:03.329Z,57.11
2016-11-14T03:30:44.027Z,57.21
2016-11-14T03:31:24.618Z,57.11
2016-11-14T03:32:05.343Z,56.73
2016-11-14T03:32:45.930Z,57.3
2016-11-14T03:33:26.624Z,56.82
2016-11-14T03:34:07.358Z,57.21
2016-11-14T03:34:48.084Z,56.73
2016-11-14T03:35:28.736Z,56.82
2016-11-14T03:36:09.377Z,56.73
2016-11-14T03:36:49.992Z,57.3
2016-11-14T03:37:30.686Z,56.82
2016-11-14T03:38:11.311Z,56.73
2016-11-14T03:38:51.928Z,56.73
2016-11-14T03:39:32.700Z,56.82
2016-11-14T03:40:13.534Z,57.21
2016-11-14T03:40:54.314Z,56.73
2016-11-14T03:41:34.880Z,56.92
2016-11-14T03:42:15.498Z,57.21
2016-11-14T03:42:56.166Z,57.21
2016-11-14T03:43:36.798Z,57.11
2016-11-14T03:44:17.552Z,56.73
2016-11-14T03:44:58.258Z,56.73
2016-11-14T03:45:39.046Z,56.82
2016-11-14T03:46:19.690Z,56.73
2016-11-14T03:47:00.304Z,56.82
2016-11-14T03:47:41.090Z,56.63
2016-11-14T03:48:21.817Z,56.73
2016-11-14T03:49:02.688Z,56.73
2016-11-14T03:49:43.415Z,56.73
2016-11-14T03:50:24.108Z,56.73
2016-11-14T03:51:04.794Z,56.73
2016-11-14T03:51:45.416Z,56.73
2016-11-14T03:52:26.093Z,57.11
2016-11-14T03:53:06.814Z,56.82
2016-11-14T03:53:47.502Z,56.82
2016-11-14T03:54:28.119Z,57.3
2016-11-14T03:55:08.791Z,56.82
2016-11-14T03:55:49.550Z,56.73
2016-11-14T03:56:30.231Z,56.82
2016-11-14T03:57:10.827Z,56.82
2016-11-14T03:57:51.452Z,56.63
2016-11-14T03:58:32.049Z,56.73
2016-11-14T03:59:12.745Z,56.82
2016-11-14T03:59:53.427Z,56.73
2016-11-14T04:00:34.111Z,57.4
2016-11-14T04:01:14.729Z,57.01
2016-11-14T04:01:55.433Z,57.3
2016-11-14T04:02:36.099Z,56.82
2016-11-14T04:03:16.801Z,56.92
2016-11-14T04:03:57.449Z,56.82
2016-11-14T04:04:38.127Z,56.82
2016-11-14T04:05:18.817Z,57.01
2016-11-14T04:05:59.410Z,57.01
2016-11-14T04:06:40.084Z,57.11
2016-11-14T04:07:20.733Z,57.21
2016-11-14T04:08:01.383Z,57.11
2016-11-14T04:08:42.121Z,57.21
2016-11-14T04:09:22.777Z,57.21
2016-11-14T04:10:03.418Z,57.3
2016-11-14T04:10:44.127Z,57.01
2016-11-14T04:11:24.748Z,56.92
2016-11-14T04:12:05.411Z,57.01
2016-11-14T04:12:46.124Z,56.82
2016-11-14T04:13:26.820Z,57.01
2016-11-14T04:14:07.492Z,57.01
2016-11-14T04:14:48.113Z,56.92
2016-11-14T04:15:28.918Z,57.3
2016-11-14T04:16:09.722Z,57.01
2016-11-14T04:16:50.396Z,57.01
2016-11-14T04:17:31.008Z,57.01
2016-11-14T04:18:11.722Z,57.21
2016-11-14T04:18:52.432Z,56.73
2016-11-14T04:19:33.140Z,56.73
2016-11-14T04:20:13.778Z,56.73
2016-11-14T04:20:55.170Z,57.3
2016-11-14T04:21:35.733Z,57.3
2016-11-14T04:22:16.348Z,56.63
2016-11-14T04:22:57.068Z,56.73
2016-11-14T04:23:37.746Z,56.63
2016-11-14T04:24:18.356Z,56.82
2016-11-14T04:24:59.008Z,56.82
2016-11-14T04:25:39.692Z,56.73
2016-11-14T04:26:20.446Z,56.73
2016-11-14T04:27:01.170Z,57.01
2016-11-14T04:27:41.849Z,57.01
2016-11-14T04:28:22.570Z,56.82
2016-11-14T04:29:03.231Z,57.11
2016-11-14T04:29:43.851Z,56.63
2016-11-14T04:30:24.475Z,56.82
2016-11-14T04:31:05.054Z,56.82
2016-11-14T04:31:45.689Z,56.63
2016-11-14T04:32:26.329Z,56.73
2016-11-14T04:33:07.041Z,56.82
2016-11-14T04:33:47.701Z,57.01
2016-11-14T04:34:28.451Z,57.21
2016-11-14T04:35:09.321Z,56.73
2016-11-14T04:35:50.051Z,56.63
2016-11-14T04:36:30.763Z,56.82
2016-11-14T04:37:11.517Z,56.73
2016-11-14T04:37:52.151Z,57.3
2016-11-14T04:38:32.813Z,56.73
2016-11-14T04:39:13.541Z,56.82
2016-11-14T04:39:54.263Z,56.63
2016-11-14T04:40:34.861Z,56.82
2016-11-14T04:41:15.440Z,57.3
2016-11-14T04:41:56.143Z,56.73
2016-11-14T04:42:36.867Z,56.73
2016-11-14T04:43:17.544Z,56.73
2016-11-14T04:43:58.175Z,56.82
2016-11-14T04:44:38.962Z,56.82
2016-11-14T04:45:19.684Z,56.73
2016-11-14T04:46:00.331Z,56.73
2016-11-14T04:46:41.152Z,56.63
2016-11-14T04:47:21.938Z,56.73
2016-11-14T04:48:02.688Z,56.92
2016-11-14T04:48:43.340Z,56.53
2016-11-14T04:49:24.086Z,56.73
2016-11-14T04:50:04.790Z,56.73
2016-11-14T04:50:45.452Z,56.73
2016-11-14T04:51:26.190Z,56.73
2016-11-14T04:52:06.820Z,56.24
2016-11-14T04:52:47.528Z,56.63
2016-11-14T04:53:28.286Z,56.7
2016-11-14T04:54:09.078Z,56.73
2016-11-14T04:54:49.776Z,56.82
2016-11-14T04:55:30.542Z,56.82
2016-11-14T04:56:11.241Z,56.82
2016-11-14T04:56:51.822Z,56.79
2016-11-14T04:57:32.438Z,56.73
2016-11-14T04:58:13.100Z,56.73
2016-11-14T04:58:53.746Z,56.53
2016-11-14T04:59:34.393Z,56.53
2016-11-14T05:00:15.142Z,56.73
2016-11-14T05:00:55.732Z,56.73
2016-11-14T05:01:36.347Z,56.82
2016-11-14T05:02:17.040Z,56.7
2016-11-14T05:02:57.741Z,56.73
2016-11-14T05:03:38.407Z,56.73
2016-11-14T05:04:19.164Z,56.82
2016-11-14T05:04:59.744Z,56.82
2016-11-14T05:05:40.379Z,56.82
2016-11-14T05:06:21.028Z,56.92
2016-11-14T05:07:01.771Z,56.73
2016-11-14T05:07:42.410Z,56.73
2016-11-14T05:08:23.147Z,56.73
2016-11-14T05:09:03.833Z,56.6
2016-11-14T05:09:44.579Z,56.82
2016-11-14T05:10:25.209Z,56.89
2016-11-14T05:11:05.953Z,56.92
2016-11-14T05:11:46.631Z,56.53
2016-11-14T05:12:27.301Z,56.7
2016-11-14T05:13:08.015Z,56.63
2016-11-14T05:13:48.697Z,56.79
2016-11-14T05:14:29.313Z,56.6
2016-11-14T05:15:09.967Z,56.73
2016-11-14T05:15:50.561Z,56.73
2016-11-14T05:16:31.311Z,56.79
2016-11-14T05:17:11.994Z,56.7
2016-11-14T05:17:52.672Z,56.7
2016-11-14T05:18:33.361Z,56.7
2016-11-14T05:19:14.160Z,56.7
2016-11-14T05:19:54.916Z,56.6
2016-11-14T05:20:35.627Z,56.98
2016-11-14T05:21:16.300Z,56.7
2016-11-14T05:21:57.152Z,56.7
2016-11-14T05:22:37.971Z,56.7
2016-11-14T05:23:18.860Z,56.51
2016-11-14T05:23:59.541Z,56.51
2016-11-14T05:24:40.224Z,56.63
2016-11-14T05:25:20.950Z,56.7
2016-11-14T05:26:01.581Z,56.6
2016-11-14T05:26:42.290Z,56.7
2016-11-14T05:27:23.117Z,56.7
2016-11-14T05:28:03.934Z,56.51
2016-11-14T05:28:44.736Z,56.7
2016-11-14T05:29:25.498Z,56.6
2016-11-14T05:30:06.194Z,56.51
2016-11-14T05:30:46.803Z,56.51
2016-11-14T05:31:27.466Z,56.7
2016-11-14T05:32:08.152Z,56.6
2016-11-14T05:32:48.714Z,56.89
2016-11-14T05:33:29.447Z,56.51
2016-11-14T05:34:10.098Z,56.79
2016-11-14T05:34:51.020Z,56.89
2016-11-14T05:35:31.777Z,56.89
2016-11-14T05:36:12.546Z,56.79
2016-11-14T05:36:53.259Z,56.6
2016-11-14T05:37:33.944Z,56.7
2016-11-14T05:38:14.543Z,56.6
2016-11-14T05:38:55.251Z,56.6
2016-11-14T05:39:35.961Z,56.98
2016-11-14T05:40:16.571Z,56.7
2016-11-14T05:40:57.185Z,56.51
2016-11-14T05:41:37.995Z,56.6
2016-11-14T05:42:18.837Z,56.79
2016-11-14T05:42:59.529Z,56.79
2016-11-14T05:43:40.317Z,56.6
2016-11-14T05:44:20.949Z,56.79
2016-11-14T05:45:01.633Z,56.51
2016-11-14T05:45:42.414Z,56.98
2016-11-14T05:46:23.103Z,56.89
2016-11-14T05:47:03.855Z,56.7
2016-11-14T05:47:44.576Z,56.31
2016-11-14T05:48:25.305Z,56.6
2016-11-14T05:49:05.991Z,56.7
2016-11-14T05:49:46.716Z,56.31
2016-11-14T05:50:27.367Z,56.31
2016-11-14T05:51:08.058Z,56.41
2016-11-14T05:51:48.764Z,56.31
2016-11-14T05:52:29.455Z,56.41
2016-11-14T05:53:10.992Z,56.31
2016-11-14T05:53:51.647Z,56.22
2016-11-14T05:54:32.388Z,56.22
2016-11-14T05:55:13.084Z,56.7
2016-11-14T05:55:53.758Z,56.31
2016-11-14T05:56:34.538Z,56.41
2016-11-14T05:57:15.158Z,56.41
2016-11-14T05:57:55.815Z,56.41
2016-11-14T05:58:36.536Z,56.31
2016-11-14T05:59:17.250Z,56.22
2016-11-14T05:59:58.055Z,56.22
2016-11-14T06:00:38.669Z,56.31
2016-11-14T06:01:20.012Z,56.22
2016-11-14T06:02:00.824Z,56.12
2016-11-14T06:02:41.511Z,56.22
2016-11-14T06:03:22.470Z,56.22
2016-11-14T06:04:04.114Z,56.22
2016-11-14T06:04:43.934Z,56.51
2016-11-14T06:05:24.696Z,56.31
2016-11-14T06:06:05.233Z,56.12
2016-11-14T06:06:46.009Z,56.22
2016-11-14T06:07:26.743Z,56.31
2016-11-14T06:08:07.355Z,56.6
2016-11-14T06:08:47.996Z,56.22
2016-11-14T06:09:28.703Z,56.41
2016-11-14T06:10:09.341Z,56.22
2016-11-14T06:10:50.087Z,56.31
2016-11-14T06:11:30.851Z,56.22
2016-11-14T06:12:11.559Z,56.51
2016-11-14T06:12:52.157Z,56.12
2016-11-14T06:13:32.913Z,56.22
2016-11-14T06:14:13.668Z,56.22
2016-11-14T06:14:54.428Z,56.41
2016-11-14T06:15:35.619Z,56.12
2016-11-14T06:16:15.691Z,55.93
2016-11-14T06:16:56.443Z,56.31
2016-11-14T06:17:37.155Z,56.31
2016-11-14T06:18:17.901Z,56.02
2016-11-14T06:18:58.593Z,55.93
2016-11-14T06:19:39.251Z,56.41
2016-11-14T06:20:19.873Z,56.41
2016-11-14T06:21:01.870Z,56.22
2016-11-14T06:21:42.545Z,55.93
2016-11-14T06:22:23.238Z,56.31
2016-11-14T06:23:03.818Z,55.93
2016-11-14T06:23:44.502Z,56.31
2016-11-14T06:24:25.152Z,56.41
2016-11-14T06:25:05.811Z,56.02
2016-11-14T06:25:46.516Z,56.22
2016-11-14T06:26:27.133Z,56.22
2016-11-14T06:27:07.838Z,56.02
2016-11-14T06:27:48.460Z,56.02
2016-11-14T06:28:29.192Z,56.12
2016-11-14T06:29:10.005Z,56.12
2016-11-14T06:29:50.659Z,56.41
2016-11-14T06:30:31.281Z,56.31
2016-11-14T06:31:11.991Z,55.93
2016-11-14T06:31:52.659Z,56.22
2016-11-14T06:32:33.463Z,56.02
2016-11-14T06:33:14.145Z,56.02
2016-11-14T06:33:54.868Z,56.02
2016-11-14T06:34:35.620Z,56.31
2016-11-14T06:35:16.300Z,56.31
2016-11-14T06:35:56.892Z,56.41
2016-11-14T06:36:37.595Z,56.31
2016-11-14T06:37:18.367Z,56.31
2016-11-14T06:37:59.154Z,56.31
2016-11-14T06:38:39.752Z,56.22
2016-11-14T06:39:20.462Z,56.31
2016-11-14T06:40:01.223Z,56.41
2016-11-14T06:40:42.009Z,56.31
2016-11-14T06:41:22.803Z,56.22
2016-11-14T06:42:03.504Z,56.31
2016-11-14T06:42:44.261Z,56.31
2016-11-14T06:43:24.954Z,56.31
2016-11-14T06:44:05.726Z,56.41
2016-11-14T06:44:46.324Z,56.41
2016-11-14T06:45:27.022Z,56.22
2016-11-14T06:46:07.851Z,56.22
2016-11-14T06:46:49.626Z,56.12
2016-11-14T06:47:29.233Z,56.22
2016-11-14T06:48:09.880Z,56.12
2016-11-14T06:48:50.653Z,56.22
2016-11-14T06:49:31.241Z,56.22
2016-11-14T06:50:11.869Z,56.22
2016-11-14T06:50:52.590Z,56.12
2016-11-14T06:51:33.341Z,56.22
2016-11-14T06:52:14.079Z,56.12
2016-11-14T06:52:54.805Z,56.31
2016-11-14T06:53:35.445Z,56.51
2016-11-14T06:54:16.066Z,56.31
2016-11-14T06:54:56.696Z,56.12
2016-11-14T06:55:37.400Z,56.12
2016-11-14T06:56:18.105Z,56.22
2016-11-14T06:56:58.873Z,56.31
2016-11-14T06:57:39.586Z,56.12
2016-11-14T06:58:20.331Z,56.22
2016-11-14T06:59:01.093Z,56.12
2016-11-14T06:59:41.744Z,56.12
2016-11-14T07:00:22.341Z,56.41
2016-11-14T07:01:03.057Z,56.31
2016-11-14T07:01:43.796Z,56.22
2016-11-14T07:02:24.491Z,56.51
2016-11-14T07:03:05.110Z,56.98
2016-11-14T07:03:45.893Z,57.65
2016-11-14T07:04:26.669Z,58.33
2016-11-14T07:05:07.512Z,59
2016-11-14T07:05:48.171Z,58.81
2016-11-14T07:06:28.829Z,59.09
2016-11-14T07:07:09.581Z,59.38
2016-11-14T07:07:50.323Z,59.58
2016-11-14T07:08:31.081Z,59.77
2016-11-14T07:09:11.718Z,59.96
2016-11-14T07:09:52.485Z,59.67
2016-11-14T07:10:33.198Z,59.77
2016-11-14T07:11:13.838Z,60.05
2016-11-14T07:11:54.563Z,59.67
2016-11-14T07:12:35.267Z,59.86
2016-11-14T07:13:15.973Z,60.35
2016-11-14T07:13:56.607Z,49.6
2016-11-14T07:14:37.285Z,39.45
2016-11-14T07:15:17.950Z,42.22
2016-11-14T07:15:58.600Z,38.64
2016-11-14T07:16:39.429Z,38.76
2016-11-14T07:17:20.047Z,39.43
2016-11-14T07:18:00.728Z,41.05
2016-11-14T07:18:41.301Z,41.94
2016-11-14T07:19:22.101Z,43.76
2016-11-14T07:20:02.871Z,45.19
2016-11-14T07:20:43.537Z,45.98
2016-11-14T07:21:24.771Z,47.22
2016-11-14T07:22:05.457Z,45.9
2016-11-14T07:22:46.155Z,46.58
2016-11-14T07:23:26.801Z,47.63
2016-11-14T07:24:07.389Z,48.23
2016-11-14T07:24:48.163Z,48.23
2016-11-14T07:25:28.871Z,48.93
2016-11-14T07:26:09.613Z,49.02
2016-11-14T07:26:50.202Z,48.16
2016-11-14T07:27:30.957Z,47.22
2016-11-14T07:28:11.811Z,48.28
2016-11-14T07:28:52.353Z,47.61
2016-11-14T07:29:33.182Z,48.28
2016-11-14T07:30:13.914Z,48.11
2016-11-14T07:30:54.595Z,46.84
2016-11-14T07:31:35.301Z,46.45
2016-11-14T07:32:16.077Z,47.34
2016-11-14T07:32:56.696Z,47.34
2016-11-14T07:33:37.373Z,47.63
2016-11-14T07:34:18.058Z,48.23
2016-11-14T07:34:58.970Z,47.08
2016-11-14T07:35:39.737Z,47.36
2016-11-14T07:36:20.562Z,46.41
2016-11-14T07:37:01.175Z,45.92
2016-11-14T07:37:41.870Z,46.5
2016-11-14T07:38:22.584Z,47.68
2016-11-14T07:39:03.192Z,46.23
2016-11-14T07:39:43.859Z,47.68
2016-11-14T07:41:05.233Z,45.47
2016-11-14T07:41:45.799Z,46.64
2016-11-14T07:42:26.451Z,46.45
2016-11-14T07:43:07.141Z,45.59
2016-11-14T07:43:47.841Z,45.78
2016-11-14T07:44:28.631Z,46.86
2016-11-14T07:45:09.401Z,46.38
2016-11-14T07:45:49.968Z,45.7
2016-11-14T07:46:30.619Z,45.42
2016-11-14T07:47:11.303Z,45.61
2016-11-14T07:47:52.003Z,44.84
2016-11-14T07:48:32.661Z,45.61
2016-11-14T07:49:13.412Z,44.74
2016-11-14T07:49:54.092Z,46.28
2016-11-14T07:50:34.785Z,46.19
2016-11-14T07:51:15.571Z,46.69
2016-11-14T07:51:56.228Z,46.4
2016-11-14T07:52:36.968Z,46.11
2016-11-14T07:53:17.662Z,45.53
2016-11-14T07:53:58.537Z,45.15
2016-11-14T07:54:39.197Z,44.48
2016-11-14T07:55:19.843Z,44.86
2016-11-14T07:56:00.571Z,46.21
2016-11-14T07:56:41.367Z,44.48
2016-11-14T07:57:22.092Z,45.83
2016-11-14T07:58:02.856Z,44.48
2016-11-14T07:58:43.512Z,44.48
2016-11-14T07:59:24.322Z,44.19
2016-11-14T08:00:05.017Z,45.15
2016-11-14T08:00:45.596Z,44.4
2016-11-14T08:01:26.260Z,45.84
2016-11-14T08:02:06.972Z,46.81
2016-11-14T08:02:47.669Z,45.65
2016-11-14T08:03:28.367Z,47.29
2016-11-14T08:04:09.207Z,46.71
2016-11-14T08:04:49.921Z,46.42
2016-11-14T08:05:30.661Z,45.87
2016-11-14T08:06:11.338Z,46.55
2016-11-14T08:06:52.121Z,45.97
2016-11-14T08:07:32.695Z,45.87
2016-11-14T08:08:13.489Z,45.39
2016-11-14T08:08:54.061Z,45.48
2016-11-14T08:09:34.765Z,44.13
2016-11-14T08:10:15.455Z,44.04
2016-11-14T08:10:56.055Z,44.04
2016-11-14T08:11:36.725Z,44.62
2016-11-14T08:12:17.378Z,44.13
2016-11-14T08:12:58.047Z,43.55
2016-11-14T08:13:38.841Z,45.58
2016-11-14T08:14:19.421Z,45.48
2016-11-14T08:15:00.023Z,44.52
2016-11-14T08:15:40.651Z,45.1
2016-11-14T08:16:21.290Z,44.42
2016-11-14T08:17:02.022Z,44.13
2016-11-14T08:17:42.789Z,43.94
2016-11-14T08:18:23.550Z,43.85
2016-11-14T08:19:04.304Z,44.13
2016-11-14T08:19:44.968Z,44.32
2016-11-14T08:20:25.676Z,45.97
2016-11-14T08:21:06.354Z,45.77
2016-11-14T08:21:47.043Z,45.58
2016-11-14T08:22:27.770Z,45.97
2016-11-14T08:23:08.448Z,45.51
2016-11-14T08:23:49.087Z,46.18
2016-11-14T08:24:29.828Z,45.6
2016-11-14T08:25:10.518Z,44.93
2016-11-14T08:25:51.196Z,44.35
2016-11-14T08:26:31.926Z,44.54
2016-11-14T08:27:12.649Z,45.12
2016-11-14T08:27:53.377Z,45.6
2016-11-14T08:28:34.087Z,45.21
2016-11-14T08:29:14.962Z,44.64
2016-11-14T08:29:55.623Z,45.41
2016-11-14T08:30:36.408Z,45.79
2016-11-14T08:31:16.978Z,45.7
2016-11-14T08:31:57.647Z,45.79
2016-11-14T08:32:38.506Z,45.79
2016-11-14T08:33:19.181Z,45.31
2016-11-14T08:33:59.891Z,45.12
2016-11-14T08:34:40.579Z,44.45
2016-11-14T08:35:21.311Z,44.25
2016-11-14T08:36:01.985Z,43
2016-11-14T08:36:42.915Z,45.12
2016-11-14T08:37:23.569Z,45.79
2016-11-14T08:38:04.291Z,45.7
2016-11-14T08:38:45.028Z,43.48
2016-11-14T08:39:25.663Z,43.29
2016-11-14T08:40:06.418Z,43.37
2016-11-14T08:40:47.297Z,43.38
2016-11-14T08:41:28.022Z,43.58
2016-11-14T08:42:08.663Z,44.04
2016-11-14T08:42:49.401Z,44.23
2016-11-14T08:43:30.068Z,44.23
2016-11-14T08:44:10.770Z,44.23
2016-11-14T08:44:51.442Z,44.23
2016-11-14T08:45:32.100Z,44.04
2016-11-14T08:46:12.770Z,44.32
2016-11-14T08:46:53.542Z,44.04